createdAt,value
2019-04-21T00:00:17.032Z,1004.92
2019-04-21T00:01:24.249Z,1005.02
2019-04-21T00:02:37.717Z,1004.93
2019-04-21T00:03:50.172Z,1004.76
2019-04-21T00:05:16.501Z,1004.93
2019-04-21T00:06:33.625Z,1004.97
2019-04-21T00:07:40.307Z,1004.94
2019-04-21T00:08:54.120Z,1004.97
2019-04-21T00:09:58.302Z,1004.82
2019-04-21T00:11:16.783Z,1004.82
2019-04-21T00:12:18.116Z,1004.84
2019-04-21T00:13:27.954Z,1004.89
2019-04-21T00:14:37.231Z,1004.89
2019-04-21T00:15:40.679Z,1005.00
2019-04-21T00:16:55.219Z,1005.01
2019-04-21T00:18:00.451Z,1005.02
2019-04-21T00:19:13.013Z,1005.02
2019-04-21T00:20:28.367Z,1004.95
2019-04-21T00:21:39.100Z,1004.93
2019-04-21T00:22:52.637Z,1004.88
2019-04-21T00:24:06.209Z,1004.89
2019-04-21T00:25:18.183Z,1004.84
2019-04-21T00:26:33.302Z,1004.90
2019-04-21T00:27:41.336Z,1004.79
2019-04-21T00:29:01.994Z,1004.72
2019-04-21T00:30:04.553Z,1004.73
2019-04-21T00:31:18.172Z,1004.76
2019-04-21T00:32:21.845Z,1004.65
2019-04-21T00:33:26.289Z,1004.65
2019-04-21T00:34:30.162Z,1004.61
2019-04-21T00:35:51.112Z,1004.63
2019-04-21T00:37:03.020Z,1004.63
2019-04-21T00:38:25.071Z,1004.58
2019-04-21T00:39:45.822Z,1004.57
2019-04-21T00:40:52.131Z,1004.47
2019-04-21T00:41:59.672Z,1004.45
2019-04-21T00:43:10.267Z,1004.30
2019-04-21T00:44:11.515Z,1004.33
2019-04-21T00:45:24.945Z,1004.39
2019-04-21T00:46:37.520Z,1004.38
2019-04-21T00:47:51.054Z,1004.47
2019-04-21T00:49:03.849Z,1004.43
2019-04-21T00:50:19.098Z,1004.42
2019-04-21T00:51:53.929Z,1004.39
2019-04-21T00:52:52.580Z,1004.31
2019-04-21T00:53:59.638Z,1004.31
2019-04-21T00:55:16.379Z,1004.24
2019-04-21T00:56:15.285Z,1004.19
2019-04-21T00:57:27.688Z,1004.19
2019-04-21T00:58:39.318Z,1004.15
2019-04-21T00:59:45.405Z,1004.15
2019-04-21T01:01:00.503Z,1004.13
2019-04-21T01:02:04.449Z,1004.16
2019-04-21T01:03:20.190Z,1004.17
2019-04-21T01:04:33.884Z,1004.25
2019-04-21T01:05:45.178Z,1004.14
2019-04-21T01:06:55.667Z,1004.08
2019-04-21T01:07:59.856Z,1003.96
2019-04-21T01:09:07.663Z,1004.06
2019-04-21T01:10:15.008Z,1004.09
2019-04-21T01:11:31.754Z,1003.92
2019-04-21T01:13:04.296Z,1003.99
2019-04-21T01:14:01.114Z,1003.92
2019-04-21T01:15:18.548Z,1004.05
2019-04-21T01:16:27.599Z,1004.08
2019-04-21T01:17:32.745Z,1003.98
2019-04-21T01:18:48.355Z,1003.93
2019-04-21T01:19:47.052Z,1004.08
2019-04-21T01:20:42.962Z,1004.18
2019-04-21T01:21:54.304Z,1004.23
2019-04-21T01:23:06.355Z,1004.25
2019-04-21T01:24:21.726Z,1004.23
2019-04-21T01:25:36.635Z,1004.01
2019-04-21T01:26:49.735Z,1004.13
2019-04-21T01:28:03.866Z,1003.98
2019-04-21T01:29:15.526Z,1004.05
2019-04-21T01:30:29.871Z,1004.13
2019-04-21T01:31:37.590Z,1004.16
2019-04-21T01:32:57.510Z,1004.15
2019-04-21T01:34:03.256Z,1004.14
2019-04-21T01:35:16.421Z,1004.16
2019-04-21T01:36:24.265Z,1004.01
2019-04-21T01:37:44.255Z,1003.98
2019-04-21T01:38:53.788Z,1003.95
2019-04-21T01:41:16.139Z,1003.91
2019-04-21T01:42:21.360Z,1003.99
2019-04-21T01:43:33.920Z,1003.98
2019-04-21T01:44:49.850Z,1004.05
2019-04-21T01:45:53.991Z,1003.77
2019-04-21T01:47:02.870Z,1003.69
2019-04-21T01:48:15.944Z,1003.76
2019-04-21T01:49:25.830Z,1003.76
2019-04-21T01:50:42.326Z,1003.69
2019-04-21T01:52:02.588Z,1003.73
2019-04-21T01:53:11.367Z,1003.68
2019-04-21T01:54:14.626Z,1003.40
2019-04-21T01:55:30.622Z,1003.07
2019-04-21T01:56:35.699Z,1003.24
2019-04-21T01:57:47.460Z,1003.58
2019-04-21T01:58:48.216Z,1003.62
2019-04-21T02:00:00.861Z,1003.83
2019-04-21T02:01:24.608Z,1003.85
2019-04-21T02:02:41.438Z,1003.97
2019-04-21T02:05:03.427Z,1004.00
2019-04-21T02:06:15.622Z,1004.00
2019-04-21T02:07:14.850Z,1004.01
2019-04-21T02:08:27.194Z,1004.07
2019-04-21T02:09:37.978Z,1003.91
2019-04-21T02:10:55.004Z,1003.78
2019-04-21T02:12:06.053Z,1003.86
2019-04-21T02:13:12.050Z,1003.48
2019-04-21T02:14:36.227Z,1003.06
2019-04-21T02:15:43.779Z,1003.22
2019-04-21T02:16:50.568Z,1003.56
2019-04-21T02:19:08.225Z,1003.78
2019-04-21T02:20:11.987Z,1004.04
2019-04-21T02:21:22.110Z,1003.99
2019-04-21T02:22:59.167Z,1004.01
2019-04-21T02:23:57.712Z,1004.09
2019-04-21T02:25:08.264Z,1004.07
2019-04-21T02:26:16.426Z,1004.04
2019-04-21T02:27:24.951Z,1004.00
2019-04-21T02:28:48.255Z,1004.01
2019-04-21T02:29:47.403Z,1004.05
2019-04-21T02:31:13.732Z,1004.10
2019-04-21T02:32:18.019Z,1004.15
2019-04-21T02:34:57.465Z,1004.04
2019-04-21T02:37:28.483Z,1004.05
2019-04-21T02:39:25.018Z,1003.81
2019-04-21T02:40:40.453Z,1003.82
2019-04-21T02:41:51.573Z,1003.81
2019-04-21T02:44:08.276Z,1003.83
2019-04-21T02:47:48.311Z,1003.20
2019-04-21T02:48:55.354Z,1003.38
2019-04-21T02:50:10.153Z,1003.46
2019-04-21T02:51:15.155Z,1003.63
2019-04-21T02:53:50.259Z,1003.79
2019-04-21T02:57:14.390Z,1003.67
2019-04-21T02:59:33.753Z,1003.81
2019-04-21T03:00:43.027Z,1003.72
2019-04-21T03:01:59.180Z,1003.65
2019-04-21T03:03:06.968Z,1003.64
2019-04-21T03:05:28.794Z,1003.69
2019-04-21T03:08:00.626Z,1003.57
2019-04-21T03:08:59.035Z,1003.60
2019-04-21T03:10:12.205Z,1003.57
2019-04-21T03:11:14.433Z,1003.52
2019-04-21T03:12:32.050Z,1003.56
2019-04-21T03:16:07.286Z,1003.53
2019-04-21T03:17:14.168Z,1003.47
2019-04-21T03:18:32.526Z,1003.44
2019-04-21T03:19:44.784Z,1003.51
2019-04-21T03:20:42.127Z,1003.51
2019-04-21T03:21:57.533Z,1003.56
2019-04-21T03:24:30.650Z,1003.34
2019-04-21T03:26:48.905Z,1003.01
2019-04-21T03:27:56.864Z,1002.99
2019-04-21T03:29:03.630Z,1003.02
2019-04-21T03:30:42.775Z,1003.13
2019-04-21T03:32:05.689Z,1003.22
2019-04-21T03:33:08.206Z,1003.26
2019-04-21T03:35:32.841Z,1003.39
2019-04-21T03:37:25.222Z,1003.45
2019-04-21T03:39:45.154Z,1003.56
2019-04-21T03:40:50.989Z,1003.56
2019-04-21T03:42:07.334Z,1003.58
2019-04-21T03:43:16.639Z,1003.53
2019-04-21T03:44:22.858Z,1003.51
2019-04-21T03:46:47.908Z,1003.45
2019-04-21T03:49:23.170Z,1003.43
2019-04-21T03:50:22.721Z,1003.41
2019-04-21T03:51:35.923Z,1003.42
2019-04-21T03:52:46.307Z,1003.37
2019-04-21T03:53:53.425Z,1003.37
2019-04-21T03:55:12.418Z,1003.33
2019-04-21T03:56:42.361Z,1003.28
2019-04-21T03:57:38.044Z,1003.28
2019-04-21T03:59:55.355Z,1003.23
2019-04-21T04:02:14.858Z,1003.19
2019-04-21T04:05:59.557Z,1003.17
2019-04-21T04:07:04.362Z,1003.21
2019-04-21T04:08:09.432Z,1003.19
2019-04-21T04:09:19.191Z,1003.23
2019-04-21T04:10:31.711Z,1003.20
2019-04-21T04:12:54.641Z,1003.19
2019-04-21T04:14:04.145Z,1003.15
2019-04-21T04:15:13.255Z,1003.21
2019-04-21T04:17:33.015Z,1003.16
2019-04-21T04:18:52.895Z,1003.15
2019-04-21T04:20:19.197Z,1003.15
2019-04-21T04:21:12.295Z,1003.14
2019-04-21T04:22:26.454Z,1003.09
2019-04-21T04:23:37.301Z,1003.05
2019-04-21T04:24:50.240Z,1003.04
2019-04-21T04:25:49.671Z,1003.02
2019-04-21T04:27:07.908Z,1003.04
2019-04-21T04:28:19.526Z,1003.07
2019-04-21T04:32:59.346Z,1003.07
2019-04-21T04:35:27.701Z,1003.11
2019-04-21T04:38:59.486Z,1003.05
2019-04-21T04:40:09.991Z,1003.06
2019-04-21T04:41:16.923Z,1003.06
2019-04-21T04:42:37.204Z,1003.04
2019-04-21T04:43:39.515Z,1003.00
2019-04-21T04:44:57.623Z,1002.98
2019-04-21T04:45:56.428Z,1002.99
2019-04-21T04:47:15.560Z,1003.02
2019-04-21T04:48:11.116Z,1002.99
2019-04-21T04:49:39.574Z,1002.92
2019-04-21T04:50:53.520Z,1002.88
2019-04-21T04:52:09.757Z,1002.87
2019-04-21T04:53:05.246Z,1002.92
2019-04-21T04:54:03.911Z,1002.90
2019-04-21T04:55:25.825Z,1002.94
2019-04-21T04:56:45.225Z,1002.95
2019-04-21T04:57:57.249Z,1002.94
2019-04-21T05:00:14.524Z,1002.97
2019-04-21T05:01:23.109Z,1002.96
2019-04-21T05:04:59.293Z,1002.90
2019-04-21T05:06:11.939Z,1002.98
2019-04-21T05:07:17.427Z,1002.97
2019-04-21T05:08:34.059Z,1002.96
2019-04-21T05:09:32.020Z,1002.98
2019-04-21T05:10:58.204Z,1002.97
2019-04-21T05:11:50.886Z,1002.97
2019-04-21T05:13:06.196Z,1002.99
2019-04-21T05:14:16.761Z,1002.96
2019-04-21T05:15:19.276Z,1002.94
2019-04-21T05:17:53.871Z,1002.97
2019-04-21T05:20:11.701Z,1002.93
2019-04-21T05:21:30.255Z,1002.91
2019-04-21T05:23:31.660Z,1002.91
2019-04-21T05:24:40.590Z,1002.93
2019-04-21T05:25:51.036Z,1002.93
2019-04-21T05:27:03.117Z,1002.91
2019-04-21T05:28:07.669Z,1002.86
2019-04-21T05:29:20.534Z,1002.69
2019-04-21T05:30:42.222Z,1002.56
2019-04-21T05:31:54.753Z,1002.41
2019-04-21T05:33:05.642Z,1002.28
2019-04-21T05:34:09.491Z,1002.14
2019-04-21T05:35:24.452Z,1001.95
2019-04-21T05:36:34.277Z,1001.83
2019-04-21T05:37:43.450Z,1001.70
2019-04-21T05:38:47.766Z,1001.48
2019-04-21T05:40:04.382Z,1001.32
2019-04-21T05:41:06.824Z,1001.21
2019-04-21T05:42:15.429Z,1001.17
2019-04-21T05:43:40.457Z,1001.11
2019-04-21T05:46:10.437Z,1000.79
2019-04-21T05:47:21.567Z,1000.69
2019-04-21T05:48:23.146Z,1000.54
2019-04-21T05:49:26.694Z,1000.86
2019-04-21T05:50:39.663Z,1000.79
2019-04-21T05:51:54.957Z,1000.55
2019-04-21T05:52:58.532Z,1000.45
2019-04-21T05:54:23.011Z,1000.35
2019-04-21T05:55:34.099Z,1000.24
2019-04-21T05:56:36.628Z,1000.07
2019-04-21T05:57:52.489Z,999.84
2019-04-21T05:58:55.410Z,999.91
2019-04-21T06:00:13.610Z,1000.07
2019-04-21T06:01:31.409Z,1000.11
2019-04-21T06:02:53.445Z,999.63
2019-04-21T06:03:49.168Z,999.76
2019-04-21T06:05:05.678Z,999.88
2019-04-21T06:06:14.058Z,999.90
2019-04-21T06:07:31.790Z,999.94
2019-04-21T06:09:48.898Z,1000.09
2019-04-21T06:12:03.424Z,999.41
2019-04-21T06:13:13.409Z,999.56
2019-04-21T06:14:20.324Z,999.49
2019-04-21T06:15:41.535Z,999.78
2019-04-21T06:16:53.611Z,999.79
2019-04-21T06:17:58.187Z,999.93
2019-04-21T06:19:04.929Z,1000.24
2019-04-21T06:20:21.226Z,999.78
2019-04-21T06:21:28.072Z,999.89
2019-04-21T06:22:40.322Z,999.31
2019-04-21T06:23:45.006Z,999.30
2019-04-21T06:26:42.148Z,998.69
2019-04-21T06:27:27.972Z,998.79
2019-04-21T06:28:43.981Z,998.77
2019-04-21T06:29:43.672Z,999.19
2019-04-21T06:31:05.646Z,999.50
2019-04-21T06:32:36.274Z,998.96
2019-04-21T06:33:19.624Z,998.71
2019-04-21T06:34:43.642Z,998.87
2019-04-21T06:35:48.926Z,998.50
2019-04-21T06:38:03.675Z,998.67
2019-04-21T06:43:02.414Z,998.27
2019-04-21T06:45:07.284Z,997.70
2019-04-21T06:46:21.080Z,997.72
2019-04-21T06:47:30.041Z,998.16
2019-04-21T06:48:42.071Z,998.40
2019-04-21T06:49:44.360Z,998.25
2019-04-21T06:51:06.885Z,998.17
2019-04-21T06:52:30.564Z,998.47
2019-04-21T06:53:29.604Z,998.14
2019-04-21T06:54:34.134Z,998.14
2019-04-21T06:55:44.199Z,997.66
2019-04-21T06:56:51.334Z,997.59
2019-04-21T06:58:06.185Z,997.75
2019-04-21T06:59:16.738Z,997.91
2019-04-21T07:00:28.402Z,997.98
2019-04-21T07:01:44.411Z,997.89
2019-04-21T07:02:58.788Z,998.30
2019-04-21T07:04:05.732Z,998.34
2019-04-21T07:05:15.366Z,998.19
2019-04-21T07:06:23.836Z,997.97
2019-04-21T07:07:23.652Z,998.18
2019-04-21T07:08:52.917Z,998.11
2019-04-21T07:09:57.078Z,997.53
2019-04-21T07:11:04.070Z,998.21
2019-04-21T07:12:14.162Z,998.01
2019-04-21T07:13:26.393Z,997.72
2019-04-21T07:15:53.793Z,998.41
2019-04-21T07:17:06.807Z,997.69
2019-04-21T07:18:12.609Z,998.28
2019-04-21T07:19:30.414Z,998.44
2019-04-21T07:20:36.747Z,998.62
2019-04-21T07:21:45.495Z,998.62
2019-04-21T07:23:03.201Z,998.04
2019-04-21T07:24:14.446Z,998.43
2019-04-21T07:25:26.466Z,998.19
2019-04-21T07:26:29.603Z,998.44
2019-04-21T07:28:20.942Z,999.51
2019-04-21T07:28:56.436Z,999.33
2019-04-21T07:30:04.611Z,999.20
2019-04-21T07:31:25.432Z,999.56
2019-04-21T07:32:29.165Z,999.20
2019-04-21T07:33:53.449Z,998.92
2019-04-21T07:35:03.554Z,999.00
2019-04-21T07:37:05.735Z,998.55
2019-04-21T07:38:21.365Z,998.89
2019-04-21T07:39:32.635Z,998.91
2019-04-21T07:40:38.858Z,999.01
2019-04-21T07:41:48.190Z,998.61
2019-04-21T07:43:02.331Z,998.95
2019-04-21T07:44:09.136Z,998.11
2019-04-21T07:45:22.750Z,998.37
2019-04-21T07:46:33.028Z,998.08
2019-04-21T07:47:50.713Z,998.41
2019-04-21T07:49:00.147Z,998.79
2019-04-21T07:50:07.438Z,998.23
2019-04-21T07:51:28.842Z,998.44
2019-04-21T07:52:35.141Z,998.87
2019-04-21T07:53:49.850Z,997.90
2019-04-21T07:55:05.892Z,996.99
2019-04-21T07:55:50.972Z,996.53
2019-04-21T07:57:11.598Z,995.85
2019-04-21T07:58:31.769Z,996.48
2019-04-21T07:59:48.555Z,996.88
2019-04-21T08:02:01.361Z,997.87
2019-04-21T08:03:15.614Z,997.24
2019-04-21T08:04:49.533Z,995.98
2019-04-21T08:05:37.547Z,995.01
2019-04-21T08:06:46.569Z,996.80
2019-04-21T08:08:06.477Z,997.90
2019-04-21T08:09:09.044Z,997.84
2019-04-21T08:10:15.661Z,995.47
2019-04-21T08:11:28.406Z,995.91
2019-04-21T08:12:37.951Z,996.78
2019-04-21T08:13:55.095Z,996.83
2019-04-21T08:15:09.886Z,996.44
2019-04-21T08:16:17.451Z,996.36
2019-04-21T08:17:23.479Z,995.84
2019-04-21T08:18:39.898Z,995.84
2019-04-21T08:19:43.106Z,996.48
2019-04-21T08:21:02.449Z,997.05
2019-04-21T08:22:11.499Z,995.39
2019-04-21T08:23:29.330Z,995.23
2019-04-21T08:24:34.922Z,997.34
2019-04-21T08:25:53.495Z,998.33
2019-04-21T08:27:01.819Z,997.71
2019-04-21T08:28:05.923Z,999.36
2019-04-21T08:29:29.712Z,996.76
2019-04-21T08:30:32.095Z,995.09
2019-04-21T08:31:53.025Z,994.93
2019-04-21T08:33:04.354Z,997.12
2019-04-21T08:34:08.348Z,996.81
2019-04-21T08:35:33.595Z,997.19
2019-04-21T08:36:46.170Z,997.63
2019-04-21T08:38:48.193Z,998.16
2019-04-21T08:40:02.176Z,998.19
2019-04-21T08:41:08.581Z,998.55
2019-04-21T08:42:23.887Z,998.12
2019-04-21T08:43:35.536Z,998.27
2019-04-21T08:44:47.872Z,998.17
2019-04-21T08:45:52.687Z,998.79
2019-04-21T08:47:09.301Z,997.47
2019-04-21T08:48:16.955Z,998.47
2019-04-21T08:49:26.544Z,998.14
2019-04-21T08:50:36.323Z,998.65
2019-04-21T08:51:54.934Z,998.05
2019-04-21T08:53:04.050Z,997.67
2019-04-21T08:54:16.977Z,998.47
2019-04-21T08:55:25.268Z,998.52
2019-04-21T08:56:34.583Z,998.46
2019-04-21T08:57:54.651Z,998.58
2019-04-21T08:59:07.493Z,998.37
2019-04-21T09:00:18.622Z,998.92
2019-04-21T09:01:26.608Z,998.43
2019-04-21T09:02:35.117Z,998.15
2019-04-21T09:03:43.039Z,998.28
2019-04-21T09:04:52.678Z,997.90
2019-04-21T09:06:09.217Z,998.41
2019-04-21T09:07:21.351Z,997.50
2019-04-21T09:08:33.101Z,998.47
2019-04-21T09:09:44.509Z,998.40
2019-04-21T09:10:52.894Z,998.71
2019-04-21T09:12:07.243Z,998.54
2019-04-21T09:13:10.283Z,998.39
2019-04-21T09:14:24.467Z,997.07
2019-04-21T09:15:36.387Z,997.57
2019-04-21T09:16:47.623Z,998.69
2019-04-21T09:17:59.411Z,998.35
2019-04-21T09:19:19.969Z,998.35
2019-04-21T09:20:26.617Z,998.35
2019-04-21T09:21:39.473Z,998.17
2019-04-21T09:22:49.085Z,997.96
2019-04-21T09:23:56.526Z,998.42
2019-04-21T09:25:16.306Z,998.15
2019-04-21T09:26:26.306Z,998.24
2019-04-21T09:27:33.688Z,998.00
2019-04-21T09:28:39.639Z,997.49
2019-04-21T09:29:46.771Z,997.71
2019-04-21T09:30:58.518Z,997.89
2019-04-21T09:32:12.401Z,998.55
2019-04-21T09:33:18.535Z,997.99
2019-04-21T09:34:36.363Z,997.87
2019-04-21T09:35:50.152Z,997.82
2019-04-21T09:37:10.482Z,997.70
2019-04-21T09:38:19.515Z,997.44
2019-04-21T09:39:21.886Z,997.77
2019-04-21T09:40:37.347Z,997.68
2019-04-21T09:41:42.788Z,997.67
2019-04-21T09:43:02.235Z,997.62
2019-04-21T09:44:15.078Z,997.63
2019-04-21T09:45:22.435Z,997.88
2019-04-21T09:46:35.424Z,996.95
2019-04-21T09:47:52.529Z,997.41
2019-04-21T09:49:00.682Z,997.37
2019-04-21T09:50:08.542Z,997.11
2019-04-21T09:51:20.154Z,997.77
2019-04-21T09:52:39.718Z,997.01
2019-04-21T09:53:47.331Z,997.01
2019-04-21T09:55:04.255Z,997.63
2019-04-21T09:56:14.206Z,997.92
2019-04-21T09:57:32.756Z,997.58
2019-04-21T09:58:38.431Z,997.68
2019-04-21T09:59:53.735Z,997.24
2019-04-21T10:01:05.175Z,997.15
2019-04-21T10:02:16.106Z,996.58
2019-04-21T10:03:21.779Z,996.77
2019-04-21T10:04:33.629Z,997.20
2019-04-21T10:05:45.242Z,997.06
2019-04-21T10:06:58.663Z,997.22
2019-04-21T10:08:10.419Z,996.24
2019-04-21T10:09:21.864Z,996.47
2019-04-21T10:10:34.216Z,996.34
2019-04-21T10:11:46.059Z,996.12
2019-04-21T10:12:58.087Z,996.91
2019-04-21T10:14:11.781Z,997.22
2019-04-21T10:15:24.839Z,997.40
2019-04-21T10:16:34.706Z,996.54
2019-04-21T10:17:47.461Z,996.70
2019-04-21T10:18:59.327Z,996.26
2019-04-21T10:20:11.935Z,996.29
2019-04-21T10:21:25.828Z,997.28
2019-04-21T10:22:37.216Z,997.06
2019-04-21T10:23:50.093Z,996.89
2019-04-21T10:25:01.134Z,996.96
2019-04-21T10:26:14.539Z,996.81
2019-04-21T10:27:25.555Z,995.61
2019-04-21T10:28:37.419Z,997.12
2019-04-21T10:29:50.556Z,995.86
2019-04-21T10:31:02.718Z,995.93
2019-04-21T10:32:15.409Z,997.11
2019-04-21T10:33:28.190Z,995.88
2019-04-21T10:34:39.429Z,996.01
2019-04-21T10:35:52.959Z,996.57
2019-04-21T10:37:04.889Z,996.17
2019-04-21T10:38:26.086Z,996.26
2019-04-21T10:39:29.486Z,996.77
2019-04-21T10:40:41.404Z,997.40
2019-04-21T10:41:53.290Z,996.53
2019-04-21T10:43:06.152Z,996.53
2019-04-21T10:44:18.927Z,995.86
2019-04-21T10:45:30.898Z,996.33
2019-04-21T10:46:45.344Z,997.44
2019-04-21T10:47:54.959Z,997.31
2019-04-21T10:49:07.023Z,996.77
2019-04-21T10:50:20.368Z,996.27
2019-04-21T10:51:31.331Z,996.80
2019-04-21T10:52:44.815Z,996.89
2019-04-21T10:53:56.137Z,996.94
2019-04-21T10:55:30.921Z,997.57
2019-04-21T10:56:29.125Z,997.65
2019-04-21T10:57:32.703Z,997.54
2019-04-21T10:58:44.762Z,997.65
2019-04-21T10:59:58.194Z,998.20
2019-04-21T11:01:10.584Z,998.69
2019-04-21T11:02:23.110Z,998.00
2019-04-21T11:03:35.347Z,997.03
2019-04-21T11:04:48.959Z,997.53
2019-04-21T11:06:01.037Z,998.04
2019-04-21T11:07:17.539Z,998.91
2019-04-21T11:08:30.750Z,997.88
2019-04-21T11:09:38.027Z,999.73
2019-04-21T11:10:50.195Z,999.38
2019-04-21T11:12:03.979Z,999.21
2019-04-21T11:13:14.701Z,998.39
2019-04-21T11:14:27.801Z,997.88
2019-04-21T11:15:41.285Z,999.43
2019-04-21T11:16:54.696Z,998.50
2019-04-21T11:18:06.426Z,999.64
2019-04-21T11:19:19.955Z,999.18
2019-04-21T11:20:31.473Z,999.69
2019-04-21T11:21:44.821Z,998.25
2019-04-21T11:22:55.926Z,998.76
2019-04-21T11:24:10.140Z,998.20
2019-04-21T11:25:22.026Z,998.51
2019-04-21T11:26:33.849Z,999.24
2019-04-21T11:27:47.062Z,999.29
2019-04-21T11:28:59.132Z,997.58
2019-04-21T11:30:11.836Z,997.57
2019-04-21T11:31:25.036Z,997.57
2019-04-21T11:32:37.077Z,997.91
2019-04-21T11:33:51.188Z,997.82
2019-04-21T11:35:03.381Z,997.18
2019-04-21T11:36:15.700Z,997.56
2019-04-21T11:37:28.769Z,998.10
2019-04-21T11:38:57.131Z,997.61
2019-04-21T11:40:03.506Z,997.97
2019-04-21T11:41:07.732Z,997.14
2019-04-21T11:42:19.753Z,999.42
2019-04-21T11:43:32.881Z,997.52
2019-04-21T11:44:45.191Z,998.09
2019-04-21T11:45:58.178Z,997.35
2019-04-21T11:47:10.301Z,998.72
2019-04-21T11:48:22.314Z,996.49
2019-04-21T11:49:34.866Z,997.75
2019-04-21T11:50:47.204Z,997.93
2019-04-21T11:52:00.696Z,996.60
2019-04-21T11:53:12.734Z,996.52
2019-04-21T11:54:24.754Z,996.86
2019-04-21T11:55:41.073Z,998.05
2019-04-21T11:56:50.657Z,997.87
2019-04-21T11:58:03.572Z,996.12
2019-04-21T11:59:15.662Z,996.98
2019-04-21T12:00:29.214Z,997.34
2019-04-21T12:01:41.456Z,997.44
2019-04-21T12:02:53.367Z,996.22
2019-04-21T12:04:05.524Z,997.31
2019-04-21T12:05:17.339Z,996.62
2019-04-21T12:06:35.056Z,996.12
2019-04-21T12:07:41.152Z,998.85
2019-04-21T12:08:57.538Z,998.52
2019-04-21T12:10:06.095Z,997.20
2019-04-21T12:11:18.214Z,998.46
2019-04-21T12:12:30.382Z,997.92
2019-04-21T12:13:43.048Z,995.88
2019-04-21T12:14:55.717Z,997.53
2019-04-21T12:16:08.372Z,997.78
2019-04-21T12:17:20.530Z,997.64
2019-04-21T12:18:34.001Z,997.17
2019-04-21T12:19:46.161Z,997.28
2019-04-21T12:20:57.673Z,996.90
2019-04-21T12:22:18.216Z,996.16
2019-04-21T12:23:22.682Z,996.93
2019-04-21T12:24:36.803Z,997.51
2019-04-21T12:25:47.399Z,997.58
2019-04-21T12:27:00.112Z,996.45
2019-04-21T12:28:12.252Z,995.87
2019-04-21T12:29:24.830Z,996.72
2019-04-21T12:30:37.794Z,997.25
2019-04-21T12:31:49.651Z,996.60
2019-04-21T12:33:02.242Z,996.81
2019-04-21T12:34:14.284Z,996.44
2019-04-21T12:35:28.013Z,996.50
2019-04-21T12:36:39.997Z,996.80
2019-04-21T12:37:53.178Z,996.09
2019-04-21T12:39:06.751Z,995.24
2019-04-21T12:40:16.894Z,995.75
2019-04-21T12:41:30.741Z,996.07
2019-04-21T12:42:43.620Z,995.54
2019-04-21T12:43:55.024Z,995.09
2019-04-21T12:45:07.601Z,995.53
2019-04-21T12:46:20.053Z,995.28
2019-04-21T12:47:32.093Z,996.44
2019-04-21T12:48:44.341Z,996.04
2019-04-21T12:49:56.982Z,994.63
2019-04-21T12:51:10.134Z,994.07
2019-04-21T12:52:22.021Z,993.87
2019-04-21T12:53:35.916Z,995.84
2019-04-21T12:54:48.045Z,995.15
2019-04-21T12:56:00.050Z,994.36
2019-04-21T12:57:11.842Z,994.22
2019-04-21T12:58:25.488Z,994.63
2019-04-21T12:59:37.830Z,995.27
2019-04-21T13:00:49.590Z,995.22
2019-04-21T13:02:01.301Z,994.84
2019-04-21T13:03:14.258Z,994.89
2019-04-21T13:04:28.024Z,994.63
2019-04-21T13:05:40.000Z,996.08
2019-04-21T13:06:51.833Z,995.69
2019-04-21T13:08:04.076Z,995.97
2019-04-21T13:09:20.200Z,994.68
2019-04-21T13:10:30.533Z,995.68
2019-04-21T13:11:41.534Z,996.07
2019-04-21T13:12:54.265Z,995.97
2019-04-21T13:14:08.151Z,995.82
2019-04-21T13:15:19.864Z,996.11
2019-04-21T13:16:31.780Z,995.73
2019-04-21T13:17:45.616Z,995.77
2019-04-21T13:18:57.603Z,995.78
2019-04-21T13:20:09.520Z,995.87
2019-04-21T13:21:22.432Z,995.80
2019-04-21T13:22:34.176Z,995.65
2019-04-21T13:23:47.216Z,994.63
2019-04-21T13:25:00.042Z,995.72
2019-04-21T13:26:11.377Z,996.61
2019-04-21T13:27:24.789Z,997.31
2019-04-21T13:28:37.484Z,997.20
2019-04-21T13:29:48.397Z,997.48
2019-04-21T13:31:00.565Z,996.14
2019-04-21T13:32:14.381Z,997.02
2019-04-21T13:33:25.377Z,996.97
2019-04-21T13:34:38.007Z,996.34
2019-04-21T13:35:50.945Z,996.91
2019-04-21T13:37:03.530Z,997.13
2019-04-21T13:38:24.527Z,996.57
2019-04-21T13:39:52.150Z,996.91
2019-04-21T13:40:53.349Z,997.43
2019-04-21T13:42:02.789Z,996.31
2019-04-21T13:43:06.150Z,997.28
2019-04-21T13:44:17.719Z,996.78
2019-04-21T13:45:29.908Z,996.84
2019-04-21T13:46:42.861Z,996.01
2019-04-21T13:47:54.491Z,996.74
2019-04-21T13:49:07.385Z,996.50
2019-04-21T13:50:19.344Z,996.26
2019-04-21T13:51:31.182Z,996.01
2019-04-21T13:52:43.192Z,995.46
2019-04-21T13:53:56.094Z,996.65
2019-04-21T13:55:09.606Z,997.32
2019-04-21T13:56:22.684Z,996.40
2019-04-21T13:57:34.631Z,996.48
2019-04-21T13:58:46.481Z,996.49
2019-04-21T13:59:59.315Z,996.31
2019-04-21T14:01:11.831Z,996.50
2019-04-21T14:02:24.732Z,996.10
2019-04-21T14:03:37.578Z,995.65
2019-04-21T14:04:49.633Z,996.00
2019-04-21T14:06:00.394Z,997.03
2019-04-21T14:07:14.223Z,996.64
2019-04-21T14:08:25.456Z,996.45
2019-04-21T14:09:48.959Z,996.80
2019-04-21T14:10:51.515Z,996.62
2019-04-21T14:12:03.417Z,995.89
2019-04-21T14:13:16.461Z,996.21
2019-04-21T14:14:28.331Z,995.87
2019-04-21T14:15:40.255Z,994.77
2019-04-21T14:16:54.144Z,995.64
2019-04-21T14:18:04.711Z,996.02
2019-04-21T14:19:17.254Z,996.45
2019-04-21T14:20:29.209Z,996.69
2019-04-21T14:21:41.499Z,996.63
2019-04-21T14:22:54.012Z,996.83
2019-04-21T14:24:06.664Z,996.17
2019-04-21T14:25:19.655Z,997.16
2019-04-21T14:26:32.159Z,995.87
2019-04-21T14:27:45.716Z,994.62
2019-04-21T14:28:55.223Z,995.65
2019-04-21T14:30:08.379Z,995.70
2019-04-21T14:31:20.078Z,996.21
2019-04-21T14:32:31.834Z,996.76
2019-04-21T14:33:43.704Z,996.40
2019-04-21T14:34:54.723Z,995.89
2019-04-21T14:36:08.482Z,996.60
2019-04-21T14:37:20.462Z,995.30
2019-04-21T14:38:32.368Z,994.59
2019-04-21T14:39:55.262Z,994.90
2019-04-21T14:40:56.492Z,995.16
2019-04-21T14:42:08.346Z,996.10
2019-04-21T14:43:20.415Z,995.31
2019-04-21T14:44:31.472Z,996.28
2019-04-21T14:45:43.288Z,996.69
2019-04-21T14:46:55.577Z,996.11
2019-04-21T14:48:09.140Z,996.01
2019-04-21T14:49:21.321Z,996.70
2019-04-21T14:50:32.499Z,996.34
2019-04-21T14:51:45.381Z,996.07
2019-04-21T14:52:57.116Z,997.79
2019-04-21T14:54:10.017Z,996.68
2019-04-21T14:55:20.932Z,995.55
2019-04-21T14:56:33.491Z,997.20
2019-04-21T14:57:45.240Z,996.68
2019-04-21T14:58:59.002Z,996.30
2019-04-21T15:00:09.221Z,997.35
2019-04-21T15:01:20.383Z,997.51
2019-04-21T15:02:33.815Z,996.98
2019-04-21T15:03:45.658Z,997.25
2019-04-21T15:04:57.827Z,996.68
2019-04-21T15:06:09.380Z,997.06
2019-04-21T15:07:21.231Z,997.95
2019-04-21T15:08:31.386Z,997.33
2019-04-21T15:09:44.526Z,998.04
2019-04-21T15:10:55.011Z,996.94
2019-04-21T15:12:07.855Z,996.59
2019-04-21T15:13:17.974Z,997.03
2019-04-21T15:14:29.844Z,996.94
2019-04-21T15:15:41.476Z,996.66
2019-04-21T15:16:52.436Z,997.63
2019-04-21T15:18:04.031Z,996.82
2019-04-21T15:19:16.888Z,996.78
2019-04-21T15:20:28.719Z,995.70
2019-04-21T15:21:40.512Z,995.21
2019-04-21T15:22:52.438Z,995.93
2019-04-21T15:24:04.510Z,996.55
2019-04-21T15:25:14.542Z,996.26
2019-04-21T15:26:26.475Z,995.15
2019-04-21T15:27:39.054Z,996.54
2019-04-21T15:28:51.004Z,997.08
2019-04-21T15:30:03.011Z,997.15
2019-04-21T15:31:20.480Z,997.50
2019-04-21T15:32:26.453Z,997.74
2019-04-21T15:33:37.010Z,997.12
2019-04-21T15:34:49.905Z,997.73
2019-04-21T15:36:00.825Z,997.91
2019-04-21T15:37:12.019Z,997.61
2019-04-21T15:38:23.384Z,997.79
2019-04-21T15:39:35.232Z,997.85
2019-04-21T15:40:53.886Z,997.69
2019-04-21T15:41:58.897Z,997.23
2019-04-21T15:43:10.646Z,997.69
2019-04-21T15:44:22.864Z,996.86
2019-04-21T15:45:34.874Z,996.74
2019-04-21T15:46:46.118Z,994.61
2019-04-21T15:47:58.171Z,994.83